sensor_id;sensor_type;location;lat;lon;timestamp;P1;durP1;ratioP1;P2;durP2;ratioP2
50745;SDS011;36711;51.972;21.204;2022-09-09T00:01:51;10.50;;;6.30;;
50745;SDS011;36711;51.972;21.204;2022-09-09T00:04:31;10.10;;;6.10;;
50745;SDS011;36711;51.972;21.204;2022-09-09T00:07:07;12.10;;;6.90;;
50745;SDS011;36711;51.972;21.204;2022-09-09T00:10:00;17.30;;;6.90;;
50745;SDS011;36711;51.972;21.204;2022-09-09T00:12:32;11.90;;;7.00;;
50745;SDS011;36711;51.972;21.204;2022-09-09T00:15:01;15.10;;;7.60;;
50745;SDS011;36711;51.972;21.204;2022-09-09T00:17:32;19.40;;;7.40;;
50745;SDS011;36711;51.972;21.204;2022-09-09T00:20:03;11.80;;;7.30;;
50745;SDS011;36711;51.972;21.204;2022-09-09T00:22:32;12.30;;;7.70;;
50745;SDS011;36711;51.972;21.204;2022-09-09T00:25:36;13.40;;;7.20;;
50745;SDS011;36711;51.972;21.204;2022-09-09T00:27:54;13.00;;;7.20;;
50745;SDS011;36711;51.972;21.204;2022-09-09T00:30:31;13.10;;;7.00;;
50745;SDS011;36711;51.972;21.204;2022-09-09T00:33:01;12.00;;;6.70;;
50745;SDS011;36711;51.972;21.204;2022-09-09T00:35:42;11.30;;;7.40;;
50745;SDS011;36711;51.972;21.204;2022-09-09T00:38:32;17.30;;;7.50;;
50745;SDS011;36711;51.972;21.204;2022-09-09T00:41:10;12.70;;;7.90;;
50745;SDS011;36711;51.972;21.204;2022-09-09T00:43:40;13.60;;;8.10;;
50745;SDS011;36711;51.972;21.204;2022-09-09T00:51:29;17.20;;;8.80;;
50745;SDS011;36711;51.972;21.204;2022-09-09T00:56:37;18.10;;;8.70;;
50745;SDS011;36711;51.972;21.204;2022-09-09T00:59:16;16.60;;;8.80;;
50745;SDS011;36711;51.972;21.204;2022-09-09T01:01:54;16.10;;;8.30;;
50745;SDS011;36711;51.972;21.204;2022-09-09T01:04:26;14.50;;;8.90;;
50745;SDS011;36711;51.972;21.204;2022-09-09T01:07:01;13.00;;;8.40;;
50745;SDS011;36711;51.972;21.204;2022-09-09T01:12:09;18.00;;;9.20;;
50745;SDS011;36711;51.972;21.204;2022-09-09T01:17:26;16.30;;;8.80;;
50745;SDS011;36711;51.972;21.204;2022-09-09T01:20:13;17.20;;;8.60;;
50745;SDS011;36711;51.972;21.204;2022-09-09T01:22:47;15.40;;;9.10;;
50745;SDS011;36711;51.972;21.204;2022-09-09T01:28:05;21.30;;;10.10;;
50745;SDS011;36711;51.972;21.204;2022-09-09T01:30:37;17.50;;;11.00;;
50745;SDS011;36711;51.972;21.204;2022-09-09T01:33:07;18.70;;;9.60;;
50745;SDS011;36711;51.972;21.204;2022-09-09T01:38:23;15.20;;;9.10;;
50745;SDS011;36711;51.972;21.204;2022-09-09T01:40:52;16.80;;;9.10;;
50745;SDS011;36711;51.972;21.204;2022-09-09T01:43:20;13.70;;;8.60;;
50745;SDS011;36711;51.972;21.204;2022-09-09T01:45:49;14.10;;;8.40;;
50745;SDS011;36711;51.972;21.204;2022-09-09T01:48:18;16.40;;;8.40;;
50745;SDS011;36711;51.972;21.204;2022-09-09T01:50:46;12.20;;;7.60;;
50745;SDS011;36711;51.972;21.204;2022-09-09T01:53:14;15.50;;;7.30;;
50745;SDS011;36711;51.972;21.204;2022-09-09T01:55:47;10.40;;;6.80;;
50745;SDS011;36711;51.972;21.204;2022-09-09T01:58:25;11.40;;;7.10;;
50745;SDS011;36711;51.972;21.204;2022-09-09T02:00:56;10.90;;;6.70;;
50745;SDS011;36711;51.972;21.204;2022-09-09T02:03:27;10.50;;;5.60;;
50745;SDS011;36711;51.972;21.204;2022-09-09T02:05:59;11.30;;;5.70;;
50745;SDS011;36711;51.972;21.204;2022-09-09T02:08:39;12.10;;;5.80;;
50745;SDS011;36711;51.972;21.204;2022-09-09T02:13:36;9.20;;;5.50;;
50745;SDS011;36711;51.972;21.204;2022-09-09T02:16:07;11.30;;;6.30;;
50745;SDS011;36711;51.972;21.204;2022-09-09T02:19:20;13.20;;;6.80;;
50745;SDS011;36711;51.972;21.204;2022-09-09T02:21:27;14.30;;;8.00;;
50745;SDS011;36711;51.972;21.204;2022-09-09T02:23:56;10.00;;;5.80;;
50745;SDS011;36711;51.972;21.204;2022-09-09T02:26:24;14.20;;;5.80;;
50745;SDS011;36711;51.972;21.204;2022-09-09T02:28:54;12.60;;;5.90;;
50745;SDS011;36711;51.972;21.204;2022-09-09T02:31:23;10.10;;;5.50;;
50745;SDS011;36711;51.972;21.204;2022-09-09T02:33:52;12.40;;;5.70;;
50745;SDS011;36711;51.972;21.204;2022-09-09T02:36:22;11.00;;;5.40;;
50745;SDS011;36711;51.972;21.204;2022-09-09T02:38:50;9.30;;;6.00;;
50745;SDS011;36711;51.972;21.204;2022-09-09T02:41:22;10.70;;;6.20;;
50745;SDS011;36711;51.972;21.204;2022-09-09T02:43:51;11.50;;;5.70;;
50745;SDS011;36711;51.972;21.204;2022-09-09T02:46:36;9.80;;;5.30;;
50745;SDS011;36711;51.972;21.204;2022-09-09T02:49:35;8.60;;;5.20;;
50745;SDS011;36711;51.972;21.204;2022-09-09T02:52:02;10.00;;;5.40;;
50745;SDS011;36711;51.972;21.204;2022-09-09T02:54:34;9.50;;;5.60;;
50745;SDS011;36711;51.972;21.204;2022-09-09T02:57:09;10.60;;;6.40;;
50745;SDS011;36711;51.972;21.204;2022-09-09T02:59:38;11.10;;;6.50;;
50745;SDS011;36711;51.972;21.204;2022-09-09T03:02:05;7.30;;;4.70;;
50745;SDS011;36711;51.972;21.204;2022-09-09T03:04:33;9.70;;;4.80;;
50745;SDS011;36711;51.972;21.204;2022-09-09T03:07:01;9.30;;;5.00;;
50745;SDS011;36711;51.972;21.204;2022-09-09T03:09:31;7.90;;;4.50;;
50745;SDS011;36711;51.972;21.204;2022-09-09T03:11:59;10.10;;;5.60;;
50745;SDS011;36711;51.972;21.204;2022-09-09T03:14:27;9.00;;;5.40;;
50745;SDS011;36711;51.972;21.204;2022-09-09T03:16:55;7.70;;;4.70;;
50745;SDS011;36711;51.972;21.204;2022-09-09T03:19:25;8.60;;;4.40;;
50745;SDS011;36711;51.972;21.204;2022-09-09T03:21:53;9.00;;;5.20;;
50745;SDS011;36711;51.972;21.204;2022-09-09T03:24:20;9.20;;;4.50;;
50745;SDS011;36711;51.972;21.204;2022-09-09T03:26:49;6.40;;;4.30;;
50745;SDS011;36711;51.972;21.204;2022-09-09T03:29:17;9.00;;;4.70;;
50745;SDS011;36711;51.972;21.204;2022-09-09T03:31:45;7.80;;;3.80;;
50745;SDS011;36711;51.972;21.204;2022-09-09T03:34:13;6.30;;;4.00;;
50745;SDS011;36711;51.972;21.204;2022-09-09T03:36:41;6.90;;;4.00;;
50745;SDS011;36711;51.972;21.204;2022-09-09T03:39:08;7.70;;;4.60;;
50745;SDS011;36711;51.972;21.204;2022-09-09T03:41:36;8.10;;;4.80;;
50745;SDS011;36711;51.972;21.204;2022-09-09T03:44:04;7.80;;;3.90;;
50745;SDS011;36711;51.972;21.204;2022-09-09T03:46:32;8.30;;;3.80;;
50745;SDS011;36711;51.972;21.204;2022-09-09T03:49:01;6.20;;;3.70;;
50745;SDS011;36711;51.972;21.204;2022-09-09T03:51:29;6.40;;;4.00;;
50745;SDS011;36711;51.972;21.204;2022-09-09T03:53:57;8.50;;;4.50;;
50745;SDS011;36711;51.972;21.204;2022-09-09T03:56:25;7.40;;;4.50;;
50745;SDS011;36711;51.972;21.204;2022-09-09T03:58:53;6.40;;;3.80;;
50745;SDS011;36711;51.972;21.204;2022-09-09T04:01:20;8.40;;;4.20;;
50745;SDS011;36711;51.972;21.204;2022-09-09T04:03:48;5.80;;;3.70;;
50745;SDS011;36711;51.972;21.204;2022-09-09T04:06:15;7.90;;;3.80;;
50745;SDS011;36711;51.972;21.204;2022-09-09T04:08:44;8.70;;;4.50;;
50745;SDS011;36711;51.972;21.204;2022-09-09T04:11:12;8.20;;;4.30;;
50745;SDS011;36711;51.972;21.204;2022-09-09T04:13:39;5.40;;;3.40;;
50745;SDS011;36711;51.972;21.204;2022-09-09T04:16:08;7.80;;;3.90;;
50745;SDS011;36711;51.972;21.204;2022-09-09T04:18:36;5.60;;;3.50;;
50745;SDS011;36711;51.972;21.204;2022-09-09T04:21:04;4.30;;;3.20;;
50745;SDS011;36711;51.972;21.204;2022-09-09T04:23:33;5.20;;;3.60;;
50745;SDS011;36711;51.972;21.204;2022-09-09T04:26:02;6.30;;;3.90;;
50745;SDS011;36711;51.972;21.204;2022-09-09T04:28:31;5.40;;;3.30;;
50745;SDS011;36711;51.972;21.204;2022-09-09T04:31:07;6.70;;;3.60;;
50745;SDS011;36711;51.972;21.204;2022-09-09T04:33:35;3.70;;;3.00;;
50745;SDS011;36711;51.972;21.204;2022-09-09T04:36:06;6.10;;;3.30;;
50745;SDS011;36711;51.972;21.204;2022-09-09T04:38:34;5.00;;;3.30;;
50745;SDS011;36711;51.972;21.204;2022-09-09T04:41:02;5.10;;;3.30;;
50745;SDS011;36711;51.972;21.204;2022-09-09T04:43:30;4.30;;;3.30;;
50745;SDS011;36711;51.972;21.204;2022-09-09T04:45:58;5.20;;;3.20;;
50745;SDS011;36711;51.972;21.204;2022-09-09T04:48:29;3.70;;;2.90;;
50745;SDS011;36711;51.972;21.204;2022-09-09T04:51:03;4.40;;;3.50;;
50745;SDS011;36711;51.972;21.204;2022-09-09T04:53:32;5.00;;;3.10;;
50745;SDS011;36711;51.972;21.204;2022-09-09T04:58:32;5.50;;;4.10;;
50745;SDS011;36711;51.972;21.204;2022-09-09T05:01:06;6.80;;;4.10;;
50745;SDS011;36711;51.972;21.204;2022-09-09T05:03:34;5.70;;;3.30;;
50745;SDS011;36711;51.972;21.204;2022-09-09T05:06:03;7.40;;;3.60;;
50745;SDS011;36711;51.972;21.204;2022-09-09T05:08:31;5.10;;;3.80;;
50745;SDS011;36711;51.972;21.204;2022-09-09T05:10:59;5.00;;;3.40;;
50745;SDS011;36711;51.972;21.204;2022-09-09T05:13:27;7.10;;;3.70;;
50745;SDS011;36711;51.972;21.204;2022-09-09T05:15:55;8.30;;;5.00;;
50745;SDS011;36711;51.972;21.204;2022-09-09T05:18:23;5.20;;;3.50;;
50745;SDS011;36711;51.972;21.204;2022-09-09T05:20:50;8.80;;;3.80;;
50745;SDS011;36711;51.972;21.204;2022-09-09T05:23:19;4.70;;;3.70;;
50745;SDS011;36711;51.972;21.204;2022-09-09T05:25:54;6.20;;;3.50;;
50745;SDS011;36711;51.972;21.204;2022-09-09T05:28:23;4.40;;;3.30;;
50745;SDS011;36711;51.972;21.204;2022-09-09T05:30:55;6.60;;;3.60;;
50745;SDS011;36711;51.972;21.204;2022-09-09T05:33:23;7.10;;;3.70;;
50745;SDS011;36711;51.972;21.204;2022-09-09T05:35:55;7.00;;;3.80;;
50745;SDS011;36711;51.972;21.204;2022-09-09T05:38:23;4.90;;;3.90;;
50745;SDS011;36711;51.972;21.204;2022-09-09T05:40:55;5.20;;;4.00;;
50745;SDS011;36711;51.972;21.204;2022-09-09T05:43:24;5.20;;;3.40;;
50745;SDS011;36711;51.972;21.204;2022-09-09T05:46:02;4.90;;;3.70;;
50745;SDS011;36711;51.972;21.204;2022-09-09T05:48:32;5.10;;;3.30;;
50745;SDS011;36711;51.972;21.204;2022-09-09T05:51:00;8.70;;;4.10;;
50745;SDS011;36711;51.972;21.204;2022-09-09T05:53:28;8.50;;;4.30;;
50745;SDS011;36711;51.972;21.204;2022-09-09T05:56:06;5.00;;;4.40;;
50745;SDS011;36711;51.972;21.204;2022-09-09T05:58:34;6.30;;;3.90;;
50745;SDS011;36711;51.972;21.204;2022-09-09T06:01:13;8.50;;;4.20;;
50745;SDS011;36711;51.972;21.204;2022-09-09T06:03:41;5.40;;;3.40;;
50745;SDS011;36711;51.972;21.204;2022-09-09T06:06:14;6.80;;;4.30;;
50745;SDS011;36711;51.972;21.204;2022-09-09T06:08:43;5.20;;;4.00;;
50745;SDS011;36711;51.972;21.204;2022-09-09T06:11:16;8.70;;;5.00;;
50745;SDS011;36711;51.972;21.204;2022-09-09T06:13:43;6.90;;;5.00;;
50745;SDS011;36711;51.972;21.204;2022-09-09T06:16:12;6.50;;;4.60;;
50745;SDS011;36711;51.972;21.204;2022-09-09T06:18:40;5.90;;;4.20;;
50745;SDS011;36711;51.972;21.204;2022-09-09T06:21:09;6.70;;;4.00;;
50745;SDS011;36711;51.972;21.204;2022-09-09T06:23:38;7.30;;;4.40;;
50745;SDS011;36711;51.972;21.204;2022-09-09T06:26:10;7.30;;;4.80;;
50745;SDS011;36711;51.972;21.204;2022-09-09T06:28:38;9.40;;;4.30;;
50745;SDS011;36711;51.972;21.204;2022-09-09T06:31:07;6.10;;;4.80;;
50745;SDS011;36711;51.972;21.204;2022-09-09T06:33:36;10.40;;;4.80;;
50745;SDS011;36711;51.972;21.204;2022-09-09T06:36:13;7.60;;;5.00;;
50745;SDS011;36711;51.972;21.204;2022-09-09T06:38:42;8.60;;;5.00;;
50745;SDS011;36711;51.972;21.204;2022-09-09T06:41:10;7.90;;;5.20;;
50745;SDS011;36711;51.972;21.204;2022-09-09T06:43:38;7.70;;;5.10;;
50745;SDS011;36711;51.972;21.204;2022-09-09T06:48:35;7.40;;;5.20;;
50745;SDS011;36711;51.972;21.204;2022-09-09T06:51:04;6.80;;;4.60;;
50745;SDS011;36711;51.972;21.204;2022-09-09T06:53:32;7.60;;;5.10;;
50745;SDS011;36711;51.972;21.204;2022-09-09T06:58:42;8.00;;;4.30;;
50745;SDS011;36711;51.972;21.204;2022-09-09T07:01:12;8.60;;;5.00;;
50745;SDS011;36711;51.972;21.204;2022-09-09T07:03:40;6.40;;;5.20;;
50745;SDS011;36711;51.972;21.204;2022-09-09T07:06:12;7.70;;;4.80;;
50745;SDS011;36711;51.972;21.204;2022-09-09T07:08:42;6.60;;;4.60;;
50745;SDS011;36711;51.972;21.204;2022-09-09T07:11:22;8.70;;;5.50;;
50745;SDS011;36711;51.972;21.204;2022-09-09T07:13:50;9.20;;;5.30;;
50745;SDS011;36711;51.972;21.204;2022-09-09T07:16:19;7.60;;;5.30;;
50745;SDS011;36711;51.972;21.204;2022-09-09T07:18:47;9.30;;;5.60;;
50745;SDS011;36711;51.972;21.204;2022-09-09T07:21:16;7.40;;;5.20;;
50745;SDS011;36711;51.972;21.204;2022-09-09T07:23:44;7.50;;;5.00;;
50745;SDS011;36711;51.972;21.204;2022-09-09T07:26:16;9.40;;;5.70;;
50745;SDS011;36711;51.972;21.204;2022-09-09T07:28:44;8.60;;;5.40;;
50745;SDS011;36711;51.972;21.204;2022-09-09T07:31:19;9.20;;;5.10;;
50745;SDS011;36711;51.972;21.204;2022-09-09T07:33:48;8.30;;;5.00;;
50745;SDS011;36711;51.972;21.204;2022-09-09T07:36:17;9.00;;;5.50;;
50745;SDS011;36711;51.972;21.204;2022-09-09T07:38:45;9.10;;;5.40;;
50745;SDS011;36711;51.972;21.204;2022-09-09T07:41:16;9.10;;;5.80;;
50745;SDS011;36711;51.972;21.204;2022-09-09T07:43:45;11.60;;;5.70;;
50745;SDS011;36711;51.972;21.204;2022-09-09T07:46:14;7.60;;;5.20;;
50745;SDS011;36711;51.972;21.204;2022-09-09T07:48:45;7.90;;;5.50;;
50745;SDS011;36711;51.972;21.204;2022-09-09T07:51:15;11.80;;;5.80;;
50745;SDS011;36711;51.972;21.204;2022-09-09T07:53:47;12.40;;;5.50;;
50745;SDS011;36711;51.972;21.204;2022-09-09T07:56:16;10.10;;;5.20;;
50745;SDS011;36711;51.972;21.204;2022-09-09T07:58:45;8.60;;;5.80;;
50745;SDS011;36711;51.972;21.204;2022-09-09T08:03:55;10.00;;;6.00;;
50745;SDS011;36711;51.972;21.204;2022-09-09T08:06:23;15.30;;;6.80;;
50745;SDS011;36711;51.972;21.204;2022-09-09T08:08:52;9.40;;;5.60;;
50745;SDS011;36711;51.972;21.204;2022-09-09T08:11:24;13.00;;;6.40;;
50745;SDS011;36711;51.972;21.204;2022-09-09T08:13:52;9.90;;;6.50;;
50745;SDS011;36711;51.972;21.204;2022-09-09T08:16:26;10.40;;;5.80;;
50745;SDS011;36711;51.972;21.204;2022-09-09T08:18:54;10.60;;;6.00;;
50745;SDS011;36711;51.972;21.204;2022-09-09T08:21:24;9.20;;;6.10;;
50745;SDS011;36711;51.972;21.204;2022-09-09T08:23:52;11.60;;;6.00;;
50745;SDS011;36711;51.972;21.204;2022-09-09T08:26:26;12.90;;;6.90;;
50745;SDS011;36711;51.972;21.204;2022-09-09T08:28:56;9.50;;;6.40;;
50745;SDS011;36711;51.972;21.204;2022-09-09T08:31:32;10.50;;;6.40;;
50745;SDS011;36711;51.972;21.204;2022-09-09T08:34:00;10.80;;;5.80;;
50745;SDS011;36711;51.972;21.204;2022-09-09T08:36:35;10.40;;;6.40;;
50745;SDS011;36711;51.972;21.204;2022-09-09T08:44:13;13.70;;;6.70;;
50745;SDS011;36711;51.972;21.204;2022-09-09T08:47:03;10.70;;;6.40;;
50745;SDS011;36711;51.972;21.204;2022-09-09T08:52:22;10.00;;;6.40;;
50745;SDS011;36711;51.972;21.204;2022-09-09T08:54:50;13.20;;;7.50;;
50745;SDS011;36711;51.972;21.204;2022-09-09T08:57:23;11.20;;;7.70;;
50745;SDS011;36711;51.972;21.204;2022-09-09T08:59:54;12.30;;;7.60;;
50745;SDS011;36711;51.972;21.204;2022-09-09T09:02:30;13.90;;;7.10;;
50745;SDS011;36711;51.972;21.204;2022-09-09T09:05:13;13.00;;;7.60;;
50745;SDS011;36711;51.972;21.204;2022-09-09T09:13:32;17.10;;;8.80;;
50745;SDS011;36711;51.972;21.204;2022-09-09T09:15:58;20.30;;;9.10;;
50745;SDS011;36711;51.972;21.204;2022-09-09T09:18:27;20.70;;;8.90;;
50745;SDS011;36711;51.972;21.204;2022-09-09T09:20:59;18.30;;;9.10;;
50745;SDS011;36711;51.972;21.204;2022-09-09T09:23:37;17.10;;;9.10;;
50745;SDS011;36711;51.972;21.204;2022-09-09T09:26:06;16.60;;;9.70;;
50745;SDS011;36711;51.972;21.204;2022-09-09T09:28:35;17.30;;;9.70;;
50745;SDS011;36711;51.972;21.204;2022-09-09T09:31:09;19.20;;;9.30;;
50745;SDS011;36711;51.972;21.204;2022-09-09T09:36:08;19.40;;;10.00;;
50745;SDS011;36711;51.972;21.204;2022-09-09T09:38:36;19.90;;;10.10;;
50745;SDS011;36711;51.972;21.204;2022-09-09T09:41:34;18.50;;;9.80;;
50745;SDS011;36711;51.972;21.204;2022-09-09T09:44:03;18.10;;;9.80;;
50745;SDS011;36711;51.972;21.204;2022-09-09T09:46:31;19.30;;;10.70;;
50745;SDS011;36711;51.972;21.204;2022-09-09T09:49:08;17.90;;;10.60;;
50745;SDS011;36711;51.972;21.204;2022-09-09T09:51:37;18.20;;;8.90;;
50745;SDS011;36711;51.972;21.204;2022-09-09T09:56:42;19.90;;;9.40;;
50745;SDS011;36711;51.972;21.204;2022-09-09T09:59:32;22.80;;;10.80;;
50745;SDS011;36711;51.972;21.204;2022-09-09T10:04:39;21.30;;;10.70;;
50745;SDS011;36711;51.972;21.204;2022-09-09T10:07:10;21.30;;;10.30;;
50745;SDS011;36711;51.972;21.204;2022-09-09T10:09:38;22.40;;;10.40;;
50745;SDS011;36711;51.972;21.204;2022-09-09T10:14:54;19.80;;;10.80;;
50745;SDS011;36711;51.972;21.204;2022-09-09T10:20:21;18.70;;;10.60;;
50745;SDS011;36711;51.972;21.204;2022-09-09T10:22:57;18.40;;;9.70;;
50745;SDS011;36711;51.972;21.204;2022-09-09T10:31:41;23.60;;;11.90;;
50745;SDS011;36711;51.972;21.204;2022-09-09T10:34:34;18.30;;;10.10;;
50745;SDS011;36711;51.972;21.204;2022-09-09T10:37:06;20.50;;;9.70;;
50745;SDS011;36711;51.972;21.204;2022-09-09T10:39:38;22.70;;;10.90;;
50745;SDS011;36711;51.972;21.204;2022-09-09T10:42:12;23.50;;;11.30;;
50745;SDS011;36711;51.972;21.204;2022-09-09T10:45:28;28.10;;;12.60;;
50745;SDS011;36711;51.972;21.204;2022-09-09T10:50:23;23.00;;;10.60;;
50745;SDS011;36711;51.972;21.204;2022-09-09T10:55:43;19.40;;;10.80;;
50745;SDS011;36711;51.972;21.204;2022-09-09T10:58:33;23.40;;;11.90;;
50745;SDS011;36711;51.972;21.204;2022-09-09T11:01:09;24.90;;;12.90;;
50745;SDS011;36711;51.972;21.204;2022-09-09T11:03:38;22.50;;;12.20;;
50745;SDS011;36711;51.972;21.204;2022-09-09T11:06:18;26.30;;;11.80;;
50745;SDS011;36711;51.972;21.204;2022-09-09T11:08:46;26.40;;;11.80;;
50745;SDS011;36711;51.972;21.204;2022-09-09T11:11:34;32.10;;;13.70;;
50745;SDS011;36711;51.972;21.204;2022-09-09T11:16:30;27.60;;;12.80;;
50745;SDS011;36711;51.972;21.204;2022-09-09T11:19:11;23.60;;;12.30;;
50745;SDS011;36711;51.972;21.204;2022-09-09T11:21:41;26.20;;;11.90;;
50745;SDS011;36711;51.972;21.204;2022-09-09T11:24:15;26.20;;;12.00;;
50745;SDS011;36711;51.972;21.204;2022-09-09T11:26:45;25.80;;;12.80;;
50745;SDS011;36711;51.972;21.204;2022-09-09T11:42:23;23.90;;;12.80;;
50745;SDS011;36711;51.972;21.204;2022-09-09T11:44:51;21.30;;;11.30;;
50745;SDS011;36711;51.972;21.204;2022-09-09T11:49:53;20.90;;;11.10;;
50745;SDS011;36711;51.972;21.204;2022-09-09T11:52:22;25.30;;;11.20;;
50745;SDS011;36711;51.972;21.204;2022-09-09T11:54:50;23.70;;;12.10;;
50745;SDS011;36711;51.972;21.204;2022-09-09T11:57:25;28.80;;;12.80;;
50745;SDS011;36711;51.972;21.204;2022-09-09T11:59:55;28.90;;;12.80;;
50745;SDS011;36711;51.972;21.204;2022-09-09T12:02:24;23.70;;;11.50;;
50745;SDS011;36711;51.972;21.204;2022-09-09T12:07:23;26.20;;;11.40;;
50745;SDS011;36711;51.972;21.204;2022-09-09T12:09:57;20.10;;;10.90;;
50745;SDS011;36711;51.972;21.204;2022-09-09T12:12:28;23.40;;;12.10;;
50745;SDS011;36711;51.972;21.204;2022-09-09T12:15:00;23.00;;;10.50;;
50745;SDS011;36711;51.972;21.204;2022-09-09T12:17:29;22.90;;;11.10;;
50745;SDS011;36711;51.972;21.204;2022-09-09T12:20:02;24.90;;;11.00;;
50745;SDS011;36711;51.972;21.204;2022-09-09T12:22:35;24.30;;;10.90;;
50745;SDS011;36711;51.972;21.204;2022-09-09T12:27:38;24.50;;;12.40;;
50745;SDS011;36711;51.972;21.204;2022-09-09T12:30:09;26.30;;;12.00;;
50745;SDS011;36711;51.972;21.204;2022-09-09T12:32:38;26.00;;;11.80;;
50745;SDS011;36711;51.972;21.204;2022-09-09T12:35:09;22.50;;;11.30;;
50745;SDS011;36711;51.972;21.204;2022-09-09T12:37:40;25.90;;;12.20;;
50745;SDS011;36711;51.972;21.204;2022-09-09T12:42:43;23.30;;;11.60;;
50745;SDS011;36711;51.972;21.204;2022-09-09T12:45:15;27.20;;;11.70;;
50745;SDS011;36711;51.972;21.204;2022-09-09T12:50:17;25.60;;;10.90;;
50745;SDS011;36711;51.972;21.204;2022-09-09T12:52:46;24.90;;;11.50;;
50745;SDS011;36711;51.972;21.204;2022-09-09T12:55:19;21.50;;;11.30;;
50745;SDS011;36711;51.972;21.204;2022-09-09T12:57:49;23.80;;;11.20;;
50745;SDS011;36711;51.972;21.204;2022-09-09T13:00:20;21.10;;;10.40;;
50745;SDS011;36711;51.972;21.204;2022-09-09T13:02:53;21.70;;;10.70;;
50745;SDS011;36711;51.972;21.204;2022-09-09T13:07:52;26.20;;;10.70;;
50745;SDS011;36711;51.972;21.204;2022-09-09T13:10:21;21.80;;;10.70;;
50745;SDS011;36711;51.972;21.204;2022-09-09T13:13:03;24.60;;;11.20;;
50745;SDS011;36711;51.972;21.204;2022-09-09T13:15:30;23.40;;;10.30;;
50745;SDS011;36711;51.972;21.204;2022-09-09T13:17:59;24.30;;;10.80;;
50745;SDS011;36711;51.972;21.204;2022-09-09T13:20:28;23.10;;;10.00;;
50745;SDS011;36711;51.972;21.204;2022-09-09T13:22:56;22.40;;;10.10;;
50745;SDS011;36711;51.972;21.204;2022-09-09T13:25:26;23.40;;;10.30;;
50745;SDS011;36711;51.972;21.204;2022-09-09T13:27:55;25.00;;;11.50;;
50745;SDS011;36711;51.972;21.204;2022-09-09T13:35:28;20.50;;;10.10;;
50745;SDS011;36711;51.972;21.204;2022-09-09T13:37:56;23.50;;;10.70;;
50745;SDS011;36711;51.972;21.204;2022-09-09T13:40:25;25.50;;;11.80;;
50745;SDS011;36711;51.972;21.204;2022-09-09T13:42:56;25.40;;;12.70;;
50745;SDS011;36711;51.972;21.204;2022-09-09T13:45:24;18.90;;;10.50;;
50745;SDS011;36711;51.972;21.204;2022-09-09T13:47:54;26.50;;;10.70;;
50745;SDS011;36711;51.972;21.204;2022-09-09T13:50:24;23.10;;;10.50;;
50745;SDS011;36711;51.972;21.204;2022-09-09T13:52:53;26.00;;;11.40;;
50745;SDS011;36711;51.972;21.204;2022-09-09T13:55:22;23.70;;;11.80;;
50745;SDS011;36711;51.972;21.204;2022-09-09T13:57:57;25.20;;;11.30;;
50745;SDS011;36711;51.972;21.204;2022-09-09T14:00:25;24.30;;;10.90;;
50745;SDS011;36711;51.972;21.204;2022-09-09T14:02:52;28.00;;;11.10;;
50745;SDS011;36711;51.972;21.204;2022-09-09T14:05:22;19.00;;;10.20;;
50745;SDS011;36711;51.972;21.204;2022-09-09T14:07:50;24.20;;;10.20;;
50745;SDS011;36711;51.972;21.204;2022-09-09T14:10:19;26.10;;;11.10;;
50745;SDS011;36711;51.972;21.204;2022-09-09T14:12:48;29.40;;;12.60;;
50745;SDS011;36711;51.972;21.204;2022-09-09T14:15:16;24.90;;;11.30;;
50745;SDS011;36711;51.972;21.204;2022-09-09T14:17:43;24.30;;;11.40;;
50745;SDS011;36711;51.972;21.204;2022-09-09T14:20:11;20.80;;;10.30;;
50745;SDS011;36711;51.972;21.204;2022-09-09T14:22:39;18.40;;;10.20;;
50745;SDS011;36711;51.972;21.204;2022-09-09T14:25:07;22.30;;;10.80;;
50745;SDS011;36711;51.972;21.204;2022-09-09T14:27:34;24.30;;;10.50;;
50745;SDS011;36711;51.972;21.204;2022-09-09T14:30:02;25.60;;;11.90;;
50745;SDS011;36711;51.972;21.204;2022-09-09T14:32:30;27.50;;;11.50;;
50745;SDS011;36711;51.972;21.204;2022-09-09T14:34:57;25.70;;;11.30;;
50745;SDS011;36711;51.972;21.204;2022-09-09T14:37:25;24.60;;;10.80;;
50745;SDS011;36711;51.972;21.204;2022-09-09T14:39:54;24.60;;;10.30;;
50745;SDS011;36711;51.972;21.204;2022-09-09T14:42:22;21.60;;;10.60;;
50745;SDS011;36711;51.972;21.204;2022-09-09T14:44:50;22.90;;;10.90;;
50745;SDS011;36711;51.972;21.204;2022-09-09T14:47:18;25.00;;;10.80;;
50745;SDS011;36711;51.972;21.204;2022-09-09T14:49:45;25.00;;;10.70;;
50745;SDS011;36711;51.972;21.204;2022-09-09T14:52:13;21.60;;;10.60;;
50745;SDS011;36711;51.972;21.204;2022-09-09T14:54:41;23.10;;;11.70;;
50745;SDS011;36711;51.972;21.204;2022-09-09T14:57:09;23.30;;;10.20;;
50745;SDS011;36711;51.972;21.204;2022-09-09T14:59:36;25.60;;;10.60;;
50745;SDS011;36711;51.972;21.204;2022-09-09T15:02:04;23.30;;;10.80;;
50745;SDS011;36711;51.972;21.204;2022-09-09T15:04:32;21.50;;;10.20;;
50745;SDS011;36711;51.972;21.204;2022-09-09T15:07:00;22.40;;;11.00;;
50745;SDS011;36711;51.972;21.204;2022-09-09T15:09:27;23.50;;;11.10;;
50745;SDS011;36711;51.972;21.204;2022-09-09T15:11:55;24.50;;;11.10;;
50745;SDS011;36711;51.972;21.204;2022-09-09T15:14:23;19.90;;;10.80;;
50745;SDS011;36711;51.972;21.204;2022-09-09T15:16:52;22.80;;;10.10;;
50745;SDS011;36711;51.972;21.204;2022-09-09T15:19:19;27.00;;;10.60;;
50745;SDS011;36711;51.972;21.204;2022-09-09T15:21:47;22.30;;;10.10;;
50745;SDS011;36711;51.972;21.204;2022-09-09T15:24:15;23.40;;;10.70;;
50745;SDS011;36711;51.972;21.204;2022-09-09T15:26:44;26.00;;;12.10;;
50745;SDS011;36711;51.972;21.204;2022-09-09T15:29:12;24.70;;;12.00;;
50745;SDS011;36711;51.972;21.204;2022-09-09T15:31:39;22.50;;;11.50;;
50745;SDS011;36711;51.972;21.204;2022-09-09T15:34:07;23.40;;;11.10;;
50745;SDS011;36711;51.972;21.204;2022-09-09T15:36:36;23.50;;;10.50;;
50745;SDS011;36711;51.972;21.204;2022-09-09T15:39:05;23.00;;;10.30;;
50745;SDS011;36711;51.972;21.204;2022-09-09T15:41:33;23.50;;;10.50;;
50745;SDS011;36711;51.972;21.204;2022-09-09T15:44:01;20.80;;;10.50;;
50745;SDS011;36711;51.972;21.204;2022-09-09T15:46:33;23.20;;;11.50;;
50745;SDS011;36711;51.972;21.204;2022-09-09T15:51:41;21.80;;;11.40;;
50745;SDS011;36711;51.972;21.204;2022-09-09T15:54:15;24.40;;;10.50;;
50745;SDS011;36711;51.972;21.204;2022-09-09T15:56:45;19.90;;;10.40;;
50745;SDS011;36711;51.972;21.204;2022-09-09T15:59:13;24.20;;;11.20;;
50745;SDS011;36711;51.972;21.204;2022-09-09T16:01:42;26.60;;;11.20;;
50745;SDS011;36711;51.972;21.204;2022-09-09T16:04:10;23.40;;;13.00;;
50745;SDS011;36711;51.972;21.204;2022-09-09T16:06:39;26.40;;;12.60;;
50745;SDS011;36711;51.972;21.204;2022-09-09T16:09:07;22.70;;;11.50;;
50745;SDS011;36711;51.972;21.204;2022-09-09T16:11:35;23.50;;;11.10;;
50745;SDS011;36711;51.972;21.204;2022-09-09T16:14:04;21.20;;;10.60;;
50745;SDS011;36711;51.972;21.204;2022-09-09T16:16:32;23.30;;;10.50;;
50745;SDS011;36711;51.972;21.204;2022-09-09T16:19:03;21.10;;;11.00;;
50745;SDS011;36711;51.972;21.204;2022-09-09T16:21:32;26.10;;;12.00;;
50745;SDS011;36711;51.972;21.204;2022-09-09T16:24:01;23.00;;;11.40;;
50745;SDS011;36711;51.972;21.204;2022-09-09T16:26:31;25.00;;;11.90;;
50745;SDS011;36711;51.972;21.204;2022-09-09T16:28:59;20.00;;;10.10;;
50745;SDS011;36711;51.972;21.204;2022-09-09T16:31:27;23.50;;;11.30;;